Airport View

Enter AWOS ICAO identifier for current METAR.

ex. KFNL

KCCA 262120Z AUTO 29009G15KT 10SM SCT038 BKN044 OVC050 04/M04 A3027 RMK AO2

26 Feb 2020 21:21

Frequency: 118.725

Phone: 501-745-5000

Other Area AWOS: KCXW - KRUE - KBVX - KSRC

TAF KLRF 261500Z 2615/2721 33010G15KT 9999 VCSH BKN020 OVC050 QNH3007INS BECMG 2620/2621 32010G15KT 9999 NSW FEW030 SCT050 BKN080 QNH3016INS BECMG 2700/2701 33009KT 9999 SCT035 QNH3026INS BECMG 2705/2706 28006KT 9999 SKC QNH3032INS TX08/2620Z TN02/2712Z